Time;durP1;ratioP1;P1;durP2;ratioP2;P2;SDS_P1;SDS_P2;PMS_P1;PMS_P2;Temp;Humidity;BMP_temperature;BMP_pressure;BME280_temperature;BME280_humidity;BME280_pressure;Samples;Min_cycle;Max_cycle;Signal;HPM_P1;HPM_P2
2021/05/29 00:02:05;;;;;;;;;;;20.80;55.80;;;;;;5047421;28;19932;-68
2021/05/29 00:04:31;;;;;;;;;;;20.80;55.90;;;;;;5049120;28;20358;-68
2021/05/29 00:06:57;;;;;;;;;;;20.80;55.80;;;;;;5045179;28;19929;-68
2021/05/29 00:09:23;;;;;;;;;;;20.80;55.80;;;;;;5049033;28;19929;-68
2021/05/29 00:11:49;;;;;;;;;;;20.80;55.80;;;;;;5048454;28;19929;-69
2021/05/29 00:14:15;;;;;;;;;;;20.80;55.80;;;;;;5023922;28;19936;-68
2021/05/29 00:16:42;;;;;;;;;;;20.80;55.80;;;;;;5048127;28;19929;-68
2021/05/29 00:19:08;;;;;;;;;;;20.80;55.80;;;;;;5047073;28;19928;-68
2021/05/29 00:21:34;;;;;;;;;;;20.80;55.80;;;;;;5046625;28;19928;-66
2021/05/29 00:24:00;;;;;;;;;;;20.80;55.80;;;;;;5047825;28;21051;-68
2021/05/29 00:26:26;;;;;;;;;;;20.80;55.80;;;;;;5046083;28;20512;-67
2021/05/29 00:28:52;;;;;;;;;;;20.80;55.80;;;;;;5048341;28;19928;-68
2021/05/29 00:31:20;;;;;;;;;;;20.80;55.80;;;;;;5047246;28;19928;-68
2021/05/29 00:33:46;;;;;;;;;;;20.80;55.80;;;;;;5048958;28;20400;-68
2021/05/29 00:36:12;;;;;;;;;;;20.80;55.80;;;;;;5046293;28;19935;-70
2021/05/29 00:38:38;;;;;;;;;;;20.80;55.80;;;;;;5047738;28;20873;-68
2021/05/29 00:41:07;;;;;;;;;;;20.80;55.80;;;;;;5030013;28;21291;-68
2021/05/29 00:43:34;;;;;;;;;;;20.80;55.80;;;;;;5041072;28;19959;-68
2021/05/29 00:46:00;;;;;;;;;;;20.80;55.80;;;;;;5049333;28;19983;-68
2021/05/29 00:48:26;;;;;;;;;;;20.80;55.80;;;;;;5048858;28;19929;-67
2021/05/29 00:50:59;;;;;;;;;;;20.80;55.90;;;;;;5045949;28;19932;-68
2021/05/29 00:53:25;;;;;;;;;;;20.80;55.80;;;;;;5048287;28;19933;-68
2021/05/29 00:55:51;;;;;;;;;;;20.80;55.80;;;;;;5043267;28;19933;-68
2021/05/29 00:58:17;;;;;;;;;;;20.80;55.80;;;;;;5047848;28;19939;-69
2021/05/29 01:00:43;;;;;;;;;;;20.80;55.80;;;;;;5041647;28;19928;-68
2021/05/29 01:03:09;;;;;;;;;;;20.80;55.90;;;;;;5044242;28;19978;-68
2021/05/29 01:05:36;;;;;;;;;;;20.80;55.80;;;;;;5044467;28;19936;-67
2021/05/29 01:08:02;;;;;;;;;;;20.80;55.80;;;;;;5048614;28;19951;-69
2021/05/29 01:10:28;;;;;;;;;;;20.80;55.90;;;;;;5048709;28;19951;-68
2021/05/29 01:12:57;;;;;;;;;;;20.80;55.80;;;;;;5048218;28;19982;-68
2021/05/29 01:15:23;;;;;;;;;;;20.80;55.80;;;;;;5045552;28;19952;-68
2021/05/29 01:17:49;;;;;;;;;;;20.70;55.80;;;;;;5042683;28;20062;-67
2021/05/29 01:20:15;;;;;;;;;;;20.70;55.70;;;;;;5045335;28;20094;-68
2021/05/29 01:22:43;;;;;;;;;;;20.70;55.70;;;;;;5045662;28;20014;-68
2021/05/29 01:25:11;;;;;;;;;;;20.80;55.80;;;;;;5046224;28;19929;-68
2021/05/29 01:27:37;;;;;;;;;;;20.70;55.70;;;;;;5044949;28;19936;-68
2021/05/29 01:30:04;;;;;;;;;;;20.80;55.80;;;;;;5045681;28;20282;-68
2021/05/29 01:32:33;;;;;;;;;;;20.80;55.80;;;;;;5048215;28;19955;-68
2021/05/29 01:35:04;;;;;;;;;;;20.80;55.90;;;;;;5008618;28;19929;-69
2021/05/29 01:37:30;;;;;;;;;;;20.80;55.80;;;;;;5010505;28;20418;-68
2021/05/29 01:39:57;;;;;;;;;;;20.80;55.90;;;;;;5032464;28;19978;-68
2021/05/29 01:42:23;;;;;;;;;;;20.80;55.80;;;;;;5047887;28;20015;-68
2021/05/29 01:44:49;;;;;;;;;;;20.80;55.90;;;;;;5047400;28;20305;-68
2021/05/29 01:47:15;;;;;;;;;;;20.80;55.80;;;;;;5047613;28;19932;-68
2021/05/29 01:49:41;;;;;;;;;;;20.90;55.90;;;;;;5044546;28;19936;-69
2021/05/29 01:52:07;;;;;;;;;;;20.80;55.80;;;;;;5035149;28;19982;-68
2021/05/29 01:54:33;;;;;;;;;;;20.80;55.80;;;;;;5044607;28;19933;-69
2021/05/29 01:57:00;;;;;;;;;;;20.80;55.90;;;;;;5047227;28;19928;-69
2021/05/29 01:59:26;;;;;;;;;;;20.80;55.80;;;;;;5047314;28;19929;-69
2021/05/29 02:01:52;;;;;;;;;;;20.80;55.80;;;;;;5047725;28;20443;-68
2021/05/29 02:04:18;;;;;;;;;;;20.80;55.80;;;;;;5046959;28;19932;-69
2021/05/29 02:06:44;;;;;;;;;;;20.80;55.80;;;;;;5047385;28;19935;-68
2021/05/29 02:09:10;;;;;;;;;;;20.80;55.90;;;;;;5050866;28;20351;-67
2021/05/29 02:11:36;;;;;;;;;;;20.80;55.80;;;;;;5047522;28;19932;-69
2021/05/29 02:14:03;;;;;;;;;;;20.80;55.80;;;;;;5034021;28;19928;-69
2021/05/29 02:16:29;;;;;;;;;;;20.80;55.80;;;;;;5044350;28;19933;-68
2021/05/29 02:18:55;;;;;;;;;;;20.80;55.80;;;;;;5043458;28;19933;-68
2021/05/29 02:21:21;;;;;;;;;;;20.80;55.90;;;;;;5028513;28;20002;-68
2021/05/29 02:23:48;;;;;;;;;;;20.70;55.70;;;;;;5043821;28;19929;-69
2021/05/29 02:26:15;;;;;;;;;;;20.80;55.80;;;;;;5046826;28;19935;-67
2021/05/29 02:28:41;;;;;;;;;;;20.80;55.80;;;;;;5050596;28;20956;-68
2021/05/29 02:31:08;;;;;;;;;;;20.80;55.80;;;;;;5050133;28;19936;-67
2021/05/29 02:33:34;;;;;;;;;;;20.80;55.90;;;;;;5028499;28;19936;-67
2021/05/29 02:36:01;;;;;;;;;;;20.80;55.80;;;;;;5047444;28;19979;-68
2021/05/29 02:38:27;;;;;;;;;;;20.80;55.80;;;;;;5048841;28;19929;-68
2021/05/29 02:40:53;;;;;;;;;;;20.80;55.80;;;;;;5050955;28;19958;-69
2021/05/29 02:43:19;;;;;;;;;;;20.80;55.80;;;;;;5042271;28;19932;-69
2021/05/29 02:45:45;;;;;;;;;;;20.70;55.70;;;;;;5049991;28;19929;-67
2021/05/29 02:48:12;;;;;;;;;;;20.70;55.70;;;;;;5050409;28;19929;-67
2021/05/29 02:50:39;;;;;;;;;;;20.70;55.70;;;;;;5047848;28;20385;-68
2021/05/29 02:53:05;;;;;;;;;;;20.70;55.70;;;;;;5018657;28;20004;-68
2021/05/29 02:55:31;;;;;;;;;;;20.70;55.70;;;;;;5035462;28;19929;-68
2021/05/29 02:57:57;;;;;;;;;;;20.70;55.70;;;;;;5039594;28;19936;-68
2021/05/29 03:00:24;;;;;;;;;;;20.70;55.80;;;;;;5049185;28;20504;-67
2021/05/29 03:02:50;;;;;;;;;;;20.70;55.70;;;;;;5049485;28;19935;-68
2021/05/29 03:05:17;;;;;;;;;;;20.70;55.70;;;;;;5049447;28;20501;-69
2021/05/29 03:07:43;;;;;;;;;;;20.70;55.70;;;;;;5040594;28;19954;-67
2021/05/29 03:10:09;;;;;;;;;;;20.70;55.70;;;;;;5044187;28;20384;-69
2021/05/29 03:12:36;;;;;;;;;;;20.70;55.70;;;;;;5038697;28;20385;-68
2021/05/29 03:15:03;;;;;;;;;;;20.70;55.70;;;;;;5033717;28;20428;-68
2021/05/29 03:17:29;;;;;;;;;;;20.70;55.70;;;;;;5044410;28;20409;-68
2021/05/29 03:19:55;;;;;;;;;;;20.70;55.80;;;;;;5047526;28;19954;-69
2021/05/29 03:22:22;;;;;;;;;;;20.80;55.80;;;;;;5047778;28;19933;-68
2021/05/29 03:24:48;;;;;;;;;;;20.70;55.70;;;;;;5047153;28;19991;-67
2021/05/29 03:27:17;;;;;;;;;;;20.70;55.80;;;;;;5048058;28;20501;-68
2021/05/29 03:29:43;;;;;;;;;;;20.70;55.70;;;;;;5050050;28;19929;-68
2021/05/29 03:32:09;;;;;;;;;;;20.70;55.70;;;;;;5037669;28;19928;-68
2021/05/29 03:34:35;;;;;;;;;;;20.70;55.70;;;;;;5047668;28;20432;-68
2021/05/29 03:37:02;;;;;;;;;;;20.70;55.70;;;;;;5050064;28;20011;-68
2021/05/29 03:39:29;;;;;;;;;;;20.70;55.70;;;;;;5050124;28;19928;-68
2021/05/29 03:41:55;;;;;;;;;;;20.70;55.80;;;;;;5047940;28;20912;-69
2021/05/29 03:44:21;;;;;;;;;;;20.70;55.70;;;;;;5048615;28;20597;-68
2021/05/29 03:46:47;;;;;;;;;;;20.70;55.70;;;;;;5049261;28;19986;-67
2021/05/29 03:49:13;;;;;;;;;;;20.70;55.70;;;;;;5048676;28;19928;-68
2021/05/29 03:51:39;;;;;;;;;;;20.70;55.70;;;;;;5046964;28;19993;-68
2021/05/29 03:54:05;;;;;;;;;;;20.70;55.70;;;;;;5049024;28;19929;-68
2021/05/29 03:56:31;;;;;;;;;;;20.70;55.70;;;;;;5047682;28;19929;-68
2021/05/29 03:58:57;;;;;;;;;;;20.70;55.70;;;;;;5021176;28;19929;-69
2021/05/29 04:01:23;;;;;;;;;;;20.70;55.70;;;;;;5027352;28;20475;-68
2021/05/29 04:03:50;;;;;;;;;;;20.70;55.70;;;;;;5042317;28;20395;-68
2021/05/29 04:06:16;;;;;;;;;;;20.70;55.80;;;;;;5048309;28;20392;-68
2021/05/29 04:08:42;;;;;;;;;;;20.70;55.70;;;;;;5048580;28;19935;-68
2021/05/29 04:11:08;;;;;;;;;;;20.70;55.70;;;;;;5048947;28;19929;-68
2021/05/29 04:13:35;;;;;;;;;;;20.70;55.80;;;;;;5047207;28;19928;-68
2021/05/29 04:16:01;;;;;;;;;;;20.70;55.70;;;;;;5021478;28;20554;-68
2021/05/29 04:18:27;;;;;;;;;;;20.70;55.80;;;;;;5048424;28;20877;-68
2021/05/29 04:20:53;;;;;;;;;;;20.70;55.70;;;;;;5030298;28;19937;-69
2021/05/29 04:23:19;;;;;;;;;;;20.70;55.70;;;;;;5038968;28;20061;-67
2021/05/29 04:25:45;;;;;;;;;;;20.70;55.70;;;;;;5045982;28;20593;-68
2021/05/29 04:28:11;;;;;;;;;;;20.70;55.70;;;;;;5048105;28;19982;-68
2021/05/29 04:30:38;;;;;;;;;;;20.60;55.70;;;;;;5042230;28;20405;-68
2021/05/29 04:33:04;;;;;;;;;;;20.60;55.70;;;;;;5036724;28;20411;-68
2021/05/29 04:35:30;;;;;;;;;;;20.60;55.70;;;;;;5050129;28;19928;-68
2021/05/29 04:37:56;;;;;;;;;;;20.60;55.70;;;;;;5048756;28;20442;-68
2021/05/29 04:40:22;;;;;;;;;;;20.60;55.70;;;;;;5036416;28;20733;-67
2021/05/29 04:42:49;;;;;;;;;;;20.60;55.70;;;;;;5035655;28;19929;-68
2021/05/29 04:45:15;;;;;;;;;;;20.50;55.60;;;;;;5035505;28;20470;-68
2021/05/29 04:47:42;;;;;;;;;;;20.50;55.60;;;;;;5034431;28;19950;-68
2021/05/29 04:50:09;;;;;;;;;;;20.50;55.60;;;;;;5033879;28;19936;-68
2021/05/29 04:52:35;;;;;;;;;;;20.60;55.70;;;;;;5032602;28;19999;-69
2021/05/29 04:55:01;;;;;;;;;;;20.50;55.60;;;;;;5046845;28;19929;-69
2021/05/29 04:57:27;;;;;;;;;;;20.60;55.70;;;;;;5048553;28;19936;-68
2021/05/29 04:59:53;;;;;;;;;;;20.60;55.70;;;;;;5047617;28;19932;-69
2021/05/29 05:02:19;;;;;;;;;;;20.60;55.70;;;;;;5046611;28;19933;-67
2021/05/29 05:04:45;;;;;;;;;;;20.60;55.70;;;;;;5046748;28;19928;-68
2021/05/29 05:07:12;;;;;;;;;;;20.60;55.70;;;;;;5045598;28;19932;-68
2021/05/29 05:09:37;;;;;;;;;;;20.60;55.70;;;;;;5048233;28;19929;-68
2021/05/29 05:12:04;;;;;;;;;;;20.60;55.70;;;;;;5040181;28;19976;-69
2021/05/29 05:14:30;;;;;;;;;;;20.70;55.70;;;;;;5049458;28;19928;-68
2021/05/29 05:16:56;;;;;;;;;;;20.70;55.70;;;;;;5046538;28;19975;-69
2021/05/29 05:19:22;;;;;;;;;;;20.70;55.70;;;;;;5046766;28;19983;-68
2021/05/29 05:21:49;;;;;;;;;;;20.70;55.70;;;;;;5044048;28;20019;-69
2021/05/29 05:24:15;;;;;;;;;;;20.70;55.70;;;;;;5047074;28;20013;-69
2021/05/29 05:26:41;;;;;;;;;;;20.80;55.80;;;;;;5046009;28;19928;-69
2021/05/29 05:29:07;;;;;;;;;;;20.80;55.80;;;;;;5044372;28;19951;-68
2021/05/29 05:31:33;;;;;;;;;;;20.80;56.30;;;;;;5026181;28;20753;-68
2021/05/29 05:34:06;;;;;;;;;;;20.90;55.30;;;;;;5043683;28;20439;-69
2021/05/29 05:36:32;;;;;;;;;;;20.90;55.20;;;;;;5037780;28;19968;-68
2021/05/29 05:38:59;;;;;;;;;;;20.90;55.50;;;;;;5009281;28;19981;-67
2021/05/29 05:41:25;;;;;;;;;;;20.90;55.40;;;;;;5047183;28;19928;-68
2021/05/29 05:43:51;;;;;;;;;;;20.90;55.20;;;;;;5050951;28;19928;-68
2021/05/29 05:46:17;;;;;;;;;;;20.90;55.00;;;;;;5051293;28;19953;-68
2021/05/29 05:48:43;;;;;;;;;;;21.00;55.30;;;;;;5051202;28;19944;-68
2021/05/29 05:51:09;;;;;;;;;;;21.00;55.20;;;;;;5048424;28;19929;-68
2021/05/29 05:53:35;;;;;;;;;;;21.00;55.00;;;;;;5051178;28;20327;-68
2021/05/29 05:56:03;;;;;;;;;;;21.10;55.00;;;;;;5049095;28;19982;-67
2021/05/29 05:58:30;;;;;;;;;;;21.10;54.90;;;;;;5025091;28;19929;-68
2021/05/29 06:00:56;;;;;;;;;;;21.10;54.90;;;;;;5049506;28;19929;-68
2021/05/29 06:03:22;;;;;;;;;;;21.10;54.70;;;;;;5048625;28;19928;-68
2021/05/29 06:05:48;;;;;;;;;;;21.20;54.90;;;;;;5047678;28;19981;-68
2021/05/29 06:08:14;;;;;;;;;;;21.20;55.00;;;;;;5038235;28;19929;-68
2021/05/29 06:10:40;;;;;;;;;;;21.20;54.80;;;;;;5050857;28;19929;-68
2021/05/29 06:13:08;;;;;;;;;;;21.20;54.80;;;;;;5051230;28;20519;-69
2021/05/29 06:18:42;;;;;;;;;;;21.10;54.70;;;;;;5048397;28;19931;-68
2021/05/29 06:21:08;;;;;;;;;;;21.10;54.60;;;;;;5048230;28;19929;-68
2021/05/29 06:23:34;;;;;;;;;;;21.10;54.70;;;;;;5047413;28;19929;-69
2021/05/29 06:26:00;;;;;;;;;;;21.10;54.40;;;;;;5027575;28;19929;-68
2021/05/29 06:28:27;;;;;;;;;;;21.10;54.60;;;;;;5050851;28;19933;-68
2021/05/29 06:30:53;;;;;;;;;;;21.10;54.90;;;;;;5046580;28;20455;-68
2021/05/29 06:33:19;;;;;;;;;;;21.10;55.10;;;;;;5048154;28;19937;-68
2021/05/29 06:35:45;;;;;;;;;;;21.10;55.10;;;;;;5050604;28;19978;-68
2021/05/29 06:38:11;;;;;;;;;;;21.10;54.90;;;;;;5050491;28;19928;-69
2021/05/29 06:40:37;;;;;;;;;;;21.10;54.80;;;;;;5026549;28;19936;-69
2021/05/29 06:43:03;;;;;;;;;;;21.10;54.90;;;;;;5026825;28;19929;-68
2021/05/29 06:45:31;;;;;;;;;;;21.10;54.80;;;;;;5051188;28;20416;-68
2021/05/29 06:47:57;;;;;;;;;;;21.10;54.80;;;;;;5049623;28;19935;-68
2021/05/29 06:50:23;;;;;;;;;;;21.10;54.60;;;;;;5046387;28;20855;-68
2021/05/29 06:52:52;;;;;;;;;;;21.10;54.70;;;;;;5049257;28;19932;-68
2021/05/29 07:00:47;;;;;;;;;;;21.00;54.80;;;;;;5045958;28;19958;-68
2021/05/29 07:03:13;;;;;;;;;;;21.00;54.60;;;;;;5044684;28;19932;-69
2021/05/29 07:05:39;;;;;;;;;;;21.00;54.70;;;;;;5050260;28;19978;-68
2021/05/29 07:08:05;;;;;;;;;;;21.00;54.80;;;;;;5033351;28;19929;-69
2021/05/29 07:10:31;;;;;;;;;;;21.00;54.90;;;;;;5043797;28;19936;-68
2021/05/29 07:12:57;;;;;;;;;;;21.00;55.20;;;;;;5050151;28;19929;-68
2021/05/29 07:15:26;;;;;;;;;;;21.00;55.10;;;;;;5049752;28;19932;-68
2021/05/29 07:17:55;;;;;;;;;;;20.90;55.30;;;;;;5048460;28;19970;-68
2021/05/29 07:20:21;;;;;;;;;;;20.90;55.10;;;;;;5044694;28;19929;-67
2021/05/29 07:22:47;;;;;;;;;;;20.90;55.10;;;;;;5047647;28;20385;-69
2021/05/29 07:25:13;;;;;;;;;;;21.00;55.20;;;;;;5025347;28;19929;-68
2021/05/29 07:27:39;;;;;;;;;;;21.00;55.20;;;;;;5049635;28;19936;-68
2021/05/29 07:30:07;;;;;;;;;;;21.00;55.10;;;;;;5045821;28;19932;-68
2021/05/29 07:32:33;;;;;;;;;;;21.00;55.20;;;;;;5050343;28;19928;-69
2021/05/29 07:35:00;;;;;;;;;;;21.10;55.20;;;;;;5049943;28;19935;-68
2021/05/29 07:37:26;;;;;;;;;;;21.10;54.70;;;;;;5047741;28;19928;-68
2021/05/29 07:39:52;;;;;;;;;;;21.10;54.60;;;;;;5048855;28;19937;-68
2021/05/29 07:42:18;;;;;;;;;;;21.00;54.80;;;;;;5049184;28;19933;-68
2021/05/29 07:44:44;;;;;;;;;;;21.00;55.00;;;;;;5048522;28;20319;-68
2021/05/29 07:47:10;;;;;;;;;;;21.00;55.10;;;;;;5049446;28;19928;-68
2021/05/29 07:49:36;;;;;;;;;;;21.00;55.30;;;;;;5046574;28;19928;-68
2021/05/29 07:52:03;;;;;;;;;;;21.00;55.20;;;;;;5048671;28;19935;-68
2021/05/29 07:54:31;;;;;;;;;;;21.00;55.10;;;;;;5028558;28;19936;-68
2021/05/29 07:56:57;;;;;;;;;;;21.10;55.20;;;;;;5044772;28;19959;-68
2021/05/29 07:59:23;;;;;;;;;;;21.10;55.10;;;;;;5047919;28;19940;-68
2021/05/29 08:01:49;;;;;;;;;;;21.10;55.10;;;;;;5048303;28;19935;-68
2021/05/29 08:04:17;;;;;;;;;;;21.10;55.00;;;;;;5047758;28;19929;-68
2021/05/29 08:06:43;;;;;;;;;;;21.10;54.90;;;;;;5047249;28;19978;-69
2021/05/29 08:09:10;;;;;;;;;;;21.10;54.80;;;;;;5049012;28;19935;-68
2021/05/29 08:11:36;;;;;;;;;;;21.10;55.00;;;;;;5049212;28;19936;-67
2021/05/29 08:14:02;;;;;;;;;;;21.00;54.80;;;;;;5049512;28;19929;-68
2021/05/29 08:16:29;;;;;;;;;;;21.00;54.80;;;;;;5048957;28;19928;-67
2021/05/29 08:18:55;;;;;;;;;;;21.00;54.90;;;;;;5048553;28;19933;-68
2021/05/29 08:21:21;;;;;;;;;;;20.90;55.10;;;;;;5044541;28;19929;-68
2021/05/29 08:23:47;;;;;;;;;;;20.90;55.10;;;;;;5045952;28;20437;-68
2021/05/29 08:26:14;;;;;;;;;;;21.00;55.10;;;;;;5047970;28;19936;-68
2021/05/29 08:28:40;;;;;;;;;;;21.00;55.20;;;;;;5048350;28;19928;-67
2021/05/29 08:31:06;;;;;;;;;;;21.00;54.90;;;;;;5047444;28;19978;-68
2021/05/29 08:33:32;;;;;;;;;;;21.00;55.00;;;;;;5048796;28;19935;-68
2021/05/29 08:35:58;;;;;;;;;;;21.00;54.90;;;;;;5048559;28;19936;-68
2021/05/29 08:38:24;;;;;;;;;;;21.00;54.90;;;;;;5040082;28;19932;-69
2021/05/29 08:40:50;;;;;;;;;;;21.10;55.00;;;;;;5043293;28;19928;-68
2021/05/29 08:43:17;;;;;;;;;;;21.00;54.80;;;;;;5040743;28;19929;-68
2021/05/29 08:45:44;;;;;;;;;;;21.00;54.90;;;;;;5047673;28;19932;-68
2021/05/29 08:48:10;;;;;;;;;;;21.00;54.90;;;;;;5048489;28;19934;-68
2021/05/29 08:50:36;;;;;;;;;;;21.00;54.80;;;;;;5046847;28;19971;-68
2021/05/29 08:53:02;;;;;;;;;;;20.90;55.10;;;;;;5043873;28;20032;-68
2021/05/29 08:55:28;;;;;;;;;;;20.90;55.20;;;;;;5048904;28;19935;-68
2021/05/29 08:57:54;;;;;;;;;;;20.90;55.30;;;;;;5047335;28;19932;-69
2021/05/29 09:00:22;;;;;;;;;;;20.90;55.20;;;;;;5046733;28;19936;-68
2021/05/29 09:02:58;;;;;;;;;;;20.90;55.30;;;;;;5047579;28;20400;-69
2021/05/29 09:05:33;;;;;;;;;;;20.90;55.30;;;;;;5043686;28;19933;-68
2021/05/29 09:08:05;;;;;;;;;;;20.90;55.10;;;;;;5046664;28;19935;-68
2021/05/29 09:10:31;;;;;;;;;;;20.80;54.80;;;;;;5039066;28;19935;-68
2021/05/29 09:13:01;;;;;;;;;;;20.90;55.20;;;;;;5048194;28;19929;-68
2021/05/29 09:15:39;;;;;;;;;;;20.90;55.30;;;;;;5023686;28;20015;-67
2021/05/29 09:18:05;;;;;;;;;;;20.90;55.20;;;;;;5041188;28;20008;-68
2021/05/29 09:20:31;;;;;;;;;;;20.90;55.10;;;;;;5049965;28;19959;-69
2021/05/29 09:22:58;;;;;;;;;;;21.00;54.90;;;;;;5050350;28;19929;-68
2021/05/29 09:25:24;;;;;;;;;;;21.00;55.00;;;;;;5049321;28;19936;-68
2021/05/29 09:27:51;;;;;;;;;;;21.00;54.90;;;;;;5051021;28;19933;-67
2021/05/29 09:30:17;;;;;;;;;;;21.00;54.80;;;;;;5049956;28;20289;-68
2021/05/29 09:32:44;;;;;;;;;;;21.00;54.60;;;;;;5051133;28;19939;-69
2021/05/29 09:35:10;;;;;;;;;;;21.00;54.80;;;;;;5051662;28;19978;-68
2021/05/29 09:37:36;;;;;;;;;;;21.00;54.80;;;;;;5051960;28;19975;-68
2021/05/29 09:40:04;;;;;;;;;;;21.00;55.00;;;;;;5031717;28;20582;-68
2021/05/29 09:42:30;;;;;;;;;;;20.90;54.90;;;;;;5042769;28;19929;-68
2021/05/29 09:44:56;;;;;;;;;;;20.90;54.90;;;;;;5051289;28;20454;-68
2021/05/29 09:47:25;;;;;;;;;;;20.90;54.60;;;;;;5051015;28;19929;-69
2021/05/29 09:49:52;;;;;;;;;;;20.90;54.80;;;;;;5026475;28;19933;-69
2021/05/29 09:52:25;;;;;;;;;;;20.90;54.90;;;;;;5033101;28;20373;-68
2021/05/29 09:54:51;;;;;;;;;;;21.00;54.80;;;;;;5037542;28;19928;-68
2021/05/29 09:57:17;;;;;;;;;;;21.00;55.00;;;;;;5049590;28;19928;-68
2021/05/29 09:59:52;;;;;;;;;;;21.00;54.90;;;;;;5051310;28;20348;-68
2021/05/29 10:02:18;;;;;;;;;;;21.10;54.90;;;;;;5049636;28;19951;-68
2021/05/29 10:04:45;;;;;;;;;;;21.10;55.70;;;;;;5050804;28;20362;-68
2021/05/29 10:07:13;;;;;;;;;;;21.00;54.70;;;;;;5049375;28;19936;-67
2021/05/29 10:09:39;;;;;;;;;;;21.00;54.70;;;;;;5046748;28;20017;-68
2021/05/29 10:12:05;;;;;;;;;;;21.00;54.80;;;;;;5050384;28;19981;-68
2021/05/29 10:14:31;;;;;;;;;;;21.00;54.80;;;;;;5050535;28;19928;-67
2021/05/29 10:16:57;;;;;;;;;;;21.00;54.80;;;;;;5039362;28;19928;-69
2021/05/29 10:19:23;;;;;;;;;;;20.90;54.60;;;;;;5047303;28;20389;-68
2021/05/29 10:21:50;;;;;;;;;;;20.90;55.10;;;;;;5046749;28;19929;-68
2021/05/29 10:24:17;;;;;;;;;;;21.00;55.00;;;;;;5048248;28;19928;-68
2021/05/29 10:26:43;;;;;;;;;;;21.00;55.00;;;;;;5049334;28;20392;-68
2021/05/29 10:29:09;;;;;;;;;;;21.00;54.80;;;;;;5043312;28;20404;-68
2021/05/29 10:31:36;;;;;;;;;;;21.00;54.80;;;;;;5046729;28;19936;-69
2021/05/29 10:34:02;;;;;;;;;;;21.00;55.00;;;;;;5048621;28;19944;-68
2021/05/29 10:36:35;;;;;;;;;;;21.00;54.80;;;;;;5049744;28;19928;-68
2021/05/29 10:39:01;;;;;;;;;;;21.00;55.00;;;;;;5024290;28;19936;-68
2021/05/29 10:41:42;;;;;;;;;;;21.00;55.00;;;;;;5049905;28;19936;-68
2021/05/29 10:44:23;;;;;;;;;;;21.00;55.20;;;;;;5049572;28;19929;-69
2021/05/29 10:47:01;;;;;;;;;;;20.90;55.00;;;;;;5047810;28;19928;-68
2021/05/29 10:49:42;;;;;;;;;;;20.90;55.10;;;;;;5045111;28;19933;-68
2021/05/29 10:52:08;;;;;;;;;;;20.90;54.80;;;;;;5032115;28;19928;-67
2021/05/29 10:54:34;;;;;;;;;;;20.90;54.80;;;;;;5049316;28;19935;-68
2021/05/29 10:57:01;;;;;;;;;;;20.90;55.00;;;;;;5048784;28;19936;-68
2021/05/29 10:59:33;;;;;;;;;;;20.90;55.00;;;;;;5048464;28;19936;-68
2021/05/29 11:02:00;;;;;;;;;;;20.90;55.10;;;;;;5046469;28;20892;-67
2021/05/29 11:04:26;;;;;;;;;;;20.90;55.00;;;;;;5049277;28;19951;-68
2021/05/29 11:06:52;;;;;;;;;;;20.90;54.80;;;;;;5049001;28;19929;-68
2021/05/29 11:09:39;;;;;;;;;;;20.90;54.80;;;;;;4961147;28;1719963;-68
2021/05/29 11:12:08;;;;;;;;;;;20.90;55.10;;;;;;5041907;28;19928;-67
2021/05/29 11:14:47;;;;;;;;;;;20.90;55.20;;;;;;5050942;28;20019;-69
2021/05/29 11:17:13;;;;;;;;;;;20.90;55.10;;;;;;5046189;28;19997;-69
2021/05/29 11:19:57;;;;;;;;;;;21.00;55.20;;;;;;5043603;28;19935;-68
2021/05/29 11:22:25;;;;;;;;;;;21.00;55.00;;;;;;5011884;28;20252;-68
2021/05/29 11:24:56;;;;;;;;;;;21.00;54.90;;;;;;5050202;28;19929;-68
2021/05/29 11:27:23;;;;;;;;;;;21.00;54.90;;;;;;5049268;28;19959;-68
2021/05/29 11:29:52;;;;;;;;;;;21.00;55.00;;;;;;5048978;28;19929;-70
2021/05/29 11:32:40;;;;;;;;;;;21.00;55.00;;;;;;5047604;28;19950;-69
2021/05/29 11:35:06;;;;;;;;;;;21.00;54.80;;;;;;5042336;28;19929;-68
2021/05/29 11:37:32;;;;;;;;;;;20.90;55.00;;;;;;5050439;28;19929;-69
2021/05/29 11:39:58;;;;;;;;;;;20.90;54.90;;;;;;5049012;28;19937;-68
2021/05/29 11:42:25;;;;;;;;;;;20.90;55.20;;;;;;5049031;28;19936;-67
2021/05/29 11:44:51;;;;;;;;;;;20.90;55.30;;;;;;5049357;28;20131;-67
2021/05/29 11:47:17;;;;;;;;;;;20.90;55.20;;;;;;5049277;28;19929;-67
2021/05/29 11:49:43;;;;;;;;;;;20.90;55.20;;;;;;5045685;28;19929;-68
2021/05/29 11:52:09;;;;;;;;;;;20.90;55.10;;;;;;5043969;28;19935;-68
2021/05/29 11:54:36;;;;;;;;;;;20.90;55.40;;;;;;5049599;28;19928;-68
2021/05/29 11:57:03;;;;;;;;;;;21.00;55.30;;;;;;5048585;28;19929;-68
2021/05/29 11:59:30;;;;;;;;;;;21.00;55.10;;;;;;5047617;28;19932;-69
2021/05/29 12:01:56;;;;;;;;;;;21.00;55.10;;;;;;5048581;28;19932;-68
2021/05/29 12:04:22;;;;;;;;;;;21.00;55.00;;;;;;5038409;28;19928;-68
2021/05/29 12:06:49;;;;;;;;;;;21.00;55.00;;;;;;5045526;28;19932;-67
2021/05/29 12:09:15;;;;;;;;;;;21.10;55.00;;;;;;5049842;28;19932;-67
2021/05/29 12:11:42;;;;;;;;;;;21.10;55.10;;;;;;5050064;28;19932;-68
2021/05/29 12:14:10;;;;;;;;;;;21.10;55.00;;;;;;5048426;28;20309;-68
2021/05/29 12:16:38;;;;;;;;;;;21.10;55.00;;;;;;5038376;28;19935;-68
2021/05/29 12:19:04;;;;;;;;;;;21.10;54.90;;;;;;5048076;28;19932;-69
2021/05/29 12:21:43;;;;;;;;;;;21.10;54.70;;;;;;5045840;28;19948;-68
2021/05/29 12:24:09;;;;;;;;;;;21.10;54.70;;;;;;5045279;28;19929;-68
2021/05/29 12:26:35;;;;;;;;;;;21.10;55.00;;;;;;5048040;28;19935;-68
2021/05/29 12:29:01;;;;;;;;;;;21.00;55.00;;;;;;5048675;28;20285;-69
2021/05/29 12:31:42;;;;;;;;;;;21.00;54.90;;;;;;5048585;28;19958;-69
2021/05/29 12:34:09;;;;;;;;;;;21.00;55.20;;;;;;5049821;28;19928;-68
2021/05/29 12:36:35;;;;;;;;;;;21.00;55.20;;;;;;5037910;28;19990;-69
2021/05/29 12:39:03;;;;;;;;;;;20.90;55.10;;;;;;5047919;28;19932;-69
2021/05/29 12:41:35;;;;;;;;;;;20.90;55.30;;;;;;5048550;28;19967;-68
2021/05/29 12:44:05;;;;;;;;;;;21.00;55.30;;;;;;5048003;28;19928;-67
2021/05/29 12:46:31;;;;;;;;;;;21.00;55.20;;;;;;5046082;28;19935;-68
2021/05/29 12:49:07;;;;;;;;;;;21.00;55.20;;;;;;5048638;28;19925;-68
2021/05/29 12:51:44;;;;;;;;;;;21.00;55.20;;;;;;5040713;28;19978;-68
2021/05/29 12:54:10;;;;;;;;;;;21.00;55.30;;;;;;5045661;28;20058;-68
2021/05/29 12:56:36;;;;;;;;;;;21.00;55.20;;;;;;5047575;28;19929;-68
2021/05/29 12:59:03;;;;;;;;;;;21.00;55.00;;;;;;5048073;28;20311;-68
2021/05/29 13:01:42;;;;;;;;;;;21.00;55.00;;;;;;5047186;28;19928;-68
2021/05/29 13:09:39;;;;;;;;;;;20.90;55.20;;;;;;5039597;28;20308;-68
2021/05/29 13:12:09;;;;;;;;;;;20.90;55.40;;;;;;5049384;28;19959;-68
2021/05/29 13:14:35;;;;;;;;;;;20.90;55.60;;;;;;5019968;28;19932;-68
2021/05/29 13:17:03;;;;;;;;;;;20.90;55.40;;;;;;5047760;28;20029;-68
2021/05/29 13:19:30;;;;;;;;;;;20.90;55.10;;;;;;5045877;28;19967;-67
2021/05/29 13:21:57;;;;;;;;;;;20.90;55.30;;;;;;5036983;28;20008;-68
2021/05/29 13:24:54;;;;;;;;;;;20.90;55.40;;;;;;5036577;28;19929;-69
2021/05/29 13:27:21;;;;;;;;;;;20.90;55.50;;;;;;4947433;28;19930;-68
2021/05/29 13:29:47;;;;;;;;;;;20.90;55.50;;;;;;5026403;28;20339;-69
2021/05/29 13:32:13;;;;;;;;;;;20.90;55.50;;;;;;5047105;28;19937;-67
2021/05/29 13:34:39;;;;;;;;;;;20.90;55.50;;;;;;5043706;28;19929;-68
2021/05/29 13:37:06;;;;;;;;;;;20.90;55.40;;;;;;5051238;28;20487;-69
2021/05/29 13:39:32;;;;;;;;;;;20.90;55.50;;;;;;5019732;28;19936;-67
2021/05/29 13:42:00;;;;;;;;;;;21.00;55.30;;;;;;5047638;28;19929;-69
2021/05/29 13:44:26;;;;;;;;;;;21.00;55.10;;;;;;5047754;28;19932;-68
2021/05/29 13:46:52;;;;;;;;;;;21.00;55.20;;;;;;5044567;28;19979;-68
2021/05/29 13:49:18;;;;;;;;;;;21.00;55.00;;;;;;5048824;28;20534;-68
2021/05/29 13:51:46;;;;;;;;;;;21.00;55.10;;;;;;5047798;28;19936;-68
2021/05/29 13:54:13;;;;;;;;;;;21.10;55.30;;;;;;5045690;28;19928;-68
2021/05/29 13:56:39;;;;;;;;;;;21.10;55.20;;;;;;5045959;28;20074;-69
2021/05/29 13:59:05;;;;;;;;;;;21.10;55.20;;;;;;5047681;28;20027;-68
2021/05/29 14:01:32;;;;;;;;;;;21.10;55.20;;;;;;5046621;28;19933;-68
2021/05/29 14:03:58;;;;;;;;;;;21.10;55.10;;;;;;5050363;28;19932;-68
2021/05/29 14:06:24;;;;;;;;;;;21.00;55.10;;;;;;5051585;28;19932;-68
2021/05/29 14:08:50;;;;;;;;;;;21.10;55.40;;;;;;5051723;28;20304;-69
2021/05/29 14:11:22;;;;;;;;;;;21.00;55.30;;;;;;5052782;28;19928;-68
2021/05/29 14:13:48;;;;;;;;;;;21.10;55.10;;;;;;5050841;28;20397;-69
2021/05/29 14:16:14;;;;;;;;;;;21.10;55.20;;;;;;5036132;28;19946;-69
2021/05/29 14:18:42;;;;;;;;;;;21.10;55.10;;;;;;5035772;28;20534;-69
2021/05/29 14:21:08;;;;;;;;;;;21.10;55.00;;;;;;5040451;28;19929;-68
2021/05/29 14:23:34;;;;;;;;;;;21.20;55.00;;;;;;5050078;28;19952;-68
2021/05/29 14:26:00;;;;;;;;;;;21.20;54.90;;;;;;5050024;28;19932;-67
2021/05/29 14:28:28;;;;;;;;;;;21.30;54.70;;;;;;5040388;28;24601;-68
2021/05/29 14:30:54;;;;;;;;;;;21.30;54.60;;;;;;5050312;28;19944;-68